WZZ2447 LZIB-LZKZ
Flight info
| Callsign | WZZ2447 |
|---|---|
| Flight time | 0h 35m |
| Altitude | 23000 |
| Route | NIT N190 TAKOS |
| Aircraft | A320/M-SDE3FGHIRWY/LB1 |
Departure
| Time | 2026-04-22 19:25 |
|---|---|
| Airport | M. R. Štefánik Airport (LZIB) |
Arrival
| Time | 2026-04-22 20:00 |
|---|---|
| Airport | Košice International Airport (LZKZ) |
| Time | Latitude | Longitude | Altitude | Speed | Heading |
|---|---|---|---|---|---|
| 2026-04-22 19:04 | 48.16801 | 17.19918 | 421 ft | 0 kts | 314° |
| 2026-04-22 19:15 | 48.16790 | 17.19935 | 429 ft | 4 kts | 314° |
| 2026-04-22 19:15 | 48.16773 | 17.19961 | 420 ft | 3 kts | 314° |
| 2026-04-22 19:16 | 48.16755 | 17.19981 | 420 ft | 4 kts | 7° |
| 2026-04-22 19:16 | 48.16738 | 17.19962 | 423 ft | 4 kts | 56° |
| 2026-04-22 19:16 | 48.16726 | 17.19938 | 421 ft | 0 kts | 44° |
| 2026-04-22 19:20 | 48.16726 | 17.19939 | 421 ft | 0 kts | 44° |
| 2026-04-22 19:20 | 48.16741 | 17.19959 | 422 ft | 8 kts | 43° |
| 2026-04-22 19:20 | 48.16800 | 17.20042 | 429 ft | 15 kts | 44° |
| 2026-04-22 19:21 | 48.16847 | 17.20166 | 423 ft | 12 kts | 121° |
| 2026-04-22 19:21 | 48.16778 | 17.20264 | 425 ft | 16 kts | 136° |
| 2026-04-22 19:21 | 48.16687 | 17.20355 | 430 ft | 12 kts | 195° |
| 2026-04-22 19:21 | 48.16614 | 17.20255 | 422 ft | 17 kts | 221° |
| 2026-04-22 19:22 | 48.16517 | 17.20131 | 426 ft | 20 kts | 220° |
| 2026-04-22 19:22 | 48.16409 | 17.19992 | 434 ft | 22 kts | 221° |
| 2026-04-22 19:22 | 48.16303 | 17.19857 | 427 ft | 20 kts | 220° |
| 2026-04-22 19:22 | 48.16176 | 17.19813 | 432 ft | 20 kts | 145° |
| 2026-04-22 19:23 | 48.16101 | 17.19929 | 428 ft | 11 kts | 133° |
| 2026-04-22 19:23 | 48.16102 | 17.19978 | 433 ft | 3 kts | 39° |
| 2026-04-22 19:23 | 48.16103 | 17.19981 | 435 ft | 0 kts | 43° |
| 2026-04-22 19:24 | 48.16107 | 17.19986 | 435 ft | 3 kts | 43° |
| 2026-04-22 19:24 | 48.16260 | 17.20204 | 423 ft | 67 kts | 44° |
| 2026-04-22 19:25 | 48.16752 | 17.20910 | 421 ft | 126 kts | 44° |
| 2026-04-22 19:25 | 48.17493 | 17.21982 | 543 ft | 162 kts | 44° |
| 2026-04-22 19:25 | 48.18297 | 17.23171 | 1164 ft | 162 kts | 40° |
| 2026-04-22 19:25 | 48.19107 | 17.24349 | 1841 ft | 166 kts | 39° |
| 2026-04-22 19:26 | 48.19996 | 17.25612 | 2174 ft | 186 kts | 39° |
| 2026-04-22 19:26 | 48.21012 | 17.27044 | 2494 ft | 215 kts | 39° |
| 2026-04-22 19:26 | 48.22109 | 17.28741 | 3031 ft | 239 kts | 52° |
| 2026-04-22 19:26 | 48.22630 | 17.31200 | 3794 ft | 258 kts | 80° |
| 2026-04-22 19:27 | 48.22803 | 17.33892 | 4761 ft | 261 kts | 79° |
| 2026-04-22 19:27 | 48.23027 | 17.36607 | 5743 ft | 264 kts | 78° |
| 2026-04-22 19:27 | 48.23276 | 17.39343 | 6680 ft | 267 kts | 78° |
| 2026-04-22 19:27 | 48.23538 | 17.42124 | 7559 ft | 271 kts | 78° |
| 2026-04-22 19:28 | 48.23806 | 17.44941 | 8435 ft | 274 kts | 78° |
| 2026-04-22 19:28 | 48.24074 | 17.47794 | 9325 ft | 278 kts | 78° |
| 2026-04-22 19:28 | 48.24339 | 17.50676 | 10182 ft | 282 kts | 79° |
| 2026-04-22 19:28 | 48.24630 | 17.53694 | 10513 ft | 303 kts | 77° |
| 2026-04-22 19:29 | 48.25026 | 17.56911 | 10846 ft | 321 kts | 76° |
| 2026-04-22 19:29 | 48.25479 | 17.60223 | 11503 ft | 327 kts | 75° |
| 2026-04-22 19:29 | 48.25952 | 17.63577 | 12256 ft | 330 kts | 75° |
| 2026-04-22 19:29 | 48.26428 | 17.66946 | 13017 ft | 332 kts | 75° |
| 2026-04-22 19:30 | 48.26743 | 17.69202 | 13517 ft | 334 kts | 75° |
| 2026-04-22 19:30 | 48.27365 | 17.73748 | 14452 ft | 337 kts | 75° |
| 2026-04-22 19:30 | 48.27836 | 17.77243 | 15125 ft | 339 kts | 75° |
| 2026-04-22 19:30 | 48.28299 | 17.80719 | 15794 ft | 340 kts | 75° |
| 2026-04-22 19:31 | 48.28763 | 17.84210 | 16460 ft | 342 kts | 75° |
| 2026-04-22 19:31 | 48.29223 | 17.87682 | 17121 ft | 344 kts | 75° |
| 2026-04-22 19:31 | 48.29693 | 17.91216 | 17767 ft | 346 kts | 75° |
| 2026-04-22 19:31 | 48.30170 | 17.94814 | 18441 ft | 348 kts | 75° |
| 2026-04-22 19:32 | 48.30637 | 17.98349 | 19016 ft | 350 kts | 76° |
| 2026-04-22 19:32 | 48.31106 | 18.01943 | 19629 ft | 351 kts | 76° |
| 2026-04-22 19:32 | 48.31578 | 18.05551 | 20239 ft | 353 kts | 76° |
| 2026-04-22 19:32 | 48.32053 | 18.09170 | 20848 ft | 354 kts | 76° |
| 2026-04-22 19:33 | 48.32529 | 18.12808 | 21416 ft | 355 kts | 76° |
| 2026-04-22 19:33 | 48.32996 | 18.16461 | 21995 ft | 357 kts | 78° |
| 2026-04-22 19:33 | 48.33311 | 18.20179 | 22530 ft | 360 kts | 81° |
| 2026-04-22 19:33 | 48.33567 | 18.23932 | 23038 ft | 362 kts | 82° |
| 2026-04-22 19:34 | 48.33794 | 18.27691 | 23160 ft | 361 kts | 82° |
| 2026-04-22 19:34 | 48.34009 | 18.31437 | 23179 ft | 359 kts | 82° |
| 2026-04-22 19:34 | 48.34220 | 18.35172 | 23188 ft | 358 kts | 82° |
| 2026-04-22 19:34 | 48.34435 | 18.38903 | 23173 ft | 358 kts | 82° |
| 2026-04-22 19:35 | 48.34655 | 18.42623 | 23177 ft | 358 kts | 82° |
| 2026-04-22 19:35 | 48.34880 | 18.46347 | 23175 ft | 357 kts | 82° |
| 2026-04-22 19:35 | 48.35028 | 18.48816 | 23179 ft | 357 kts | 82° |
| 2026-04-22 19:35 | 48.35329 | 18.53786 | 23177 ft | 357 kts | 82° |
| 2026-04-22 19:36 | 48.35556 | 18.57506 | 23170 ft | 358 kts | 82° |
| 2026-04-22 19:36 | 48.35782 | 18.61231 | 23176 ft | 358 kts | 82° |
| 2026-04-22 19:36 | 48.36006 | 18.64964 | 23182 ft | 358 kts | 82° |
| 2026-04-22 19:36 | 48.36227 | 18.68686 | 23179 ft | 358 kts | 82° |
| 2026-04-22 19:37 | 48.36445 | 18.72409 | 23175 ft | 358 kts | 82° |
| 2026-04-22 19:37 | 48.36661 | 18.76139 | 23175 ft | 358 kts | 82° |
| 2026-04-22 19:37 | 48.36876 | 18.79863 | 23175 ft | 358 kts | 82° |
| 2026-04-22 19:37 | 48.37091 | 18.83591 | 23197 ft | 358 kts | 82° |
| 2026-04-22 19:38 | 48.37305 | 18.87319 | 23191 ft | 358 kts | 82° |
| 2026-04-22 19:38 | 48.37517 | 18.91044 | 23194 ft | 358 kts | 82° |
| 2026-04-22 19:38 | 48.37728 | 18.94772 | 23176 ft | 357 kts | 82° |
| 2026-04-22 19:38 | 48.37938 | 18.98493 | 23181 ft | 358 kts | 82° |
| 2026-04-22 19:39 | 48.38143 | 19.02174 | 23168 ft | 357 kts | 82° |
| 2026-04-22 19:39 | 48.38351 | 19.05950 | 23168 ft | 357 kts | 82° |
| 2026-04-22 19:39 | 48.38552 | 19.09617 | 23168 ft | 357 kts | 82° |
| 2026-04-22 19:39 | 48.38755 | 19.13336 | 23170 ft | 357 kts | 82° |
| 2026-04-22 19:40 | 48.38958 | 19.17063 | 23164 ft | 357 kts | 82° |
| 2026-04-22 19:40 | 48.39159 | 19.20794 | 23167 ft | 358 kts | 82° |
| 2026-04-22 19:40 | 48.39359 | 19.24522 | 23163 ft | 358 kts | 82° |
| 2026-04-22 19:40 | 48.39559 | 19.28246 | 23168 ft | 357 kts | 82° |
| 2026-04-22 19:41 | 48.39759 | 19.31972 | 23175 ft | 357 kts | 82° |
| 2026-04-22 19:41 | 48.39958 | 19.35690 | 23172 ft | 357 kts | 82° |
| 2026-04-22 19:41 | 48.40157 | 19.39429 | 23176 ft | 357 kts | 82° |
| 2026-04-22 19:41 | 48.40354 | 19.43159 | 23176 ft | 357 kts | 82° |
| 2026-04-22 19:42 | 48.40549 | 19.46884 | 23169 ft | 357 kts | 83° |
| 2026-04-22 19:42 | 48.40742 | 19.50619 | 23163 ft | 357 kts | 83° |
| 2026-04-22 19:42 | 48.40932 | 19.54343 | 23166 ft | 357 kts | 83° |
| 2026-04-22 19:42 | 48.41121 | 19.58064 | 23164 ft | 353 kts | 83° |
| 2026-04-22 19:43 | 48.41476 | 19.65205 | 22604 ft | 335 kts | 82° |
| 2026-04-22 19:43 | 48.41650 | 19.68690 | 22107 ft | 333 kts | 82° |
| 2026-04-22 19:43 | 48.41822 | 19.72148 | 21589 ft | 331 kts | 82° |
| 2026-04-22 19:44 | 48.41993 | 19.75598 | 21076 ft | 330 kts | 82° |
| 2026-04-22 19:44 | 48.42163 | 19.79031 | 20585 ft | 329 kts | 82° |
| 2026-04-22 19:44 | 48.42331 | 19.82466 | 20075 ft | 328 kts | 82° |
| 2026-04-22 19:44 | 48.42498 | 19.85885 | 19573 ft | 327 kts | 82° |
| 2026-04-22 19:45 | 48.42664 | 19.89294 | 19081 ft | 326 kts | 82° |
| 2026-04-22 19:45 | 48.42828 | 19.92698 | 18602 ft | 326 kts | 82° |
| 2026-04-22 19:45 | 48.42988 | 19.96098 | 18077 ft | 325 kts | 82° |
| 2026-04-22 19:45 | 48.43147 | 19.99483 | 17568 ft | 324 kts | 82° |
| 2026-04-22 19:46 | 48.43305 | 20.02856 | 17102 ft | 322 kts | 82° |
| 2026-04-22 19:46 | 48.43462 | 20.06230 | 16698 ft | 322 kts | 82° |
| 2026-04-22 19:46 | 48.43621 | 20.09591 | 16305 ft | 321 kts | 82° |
| 2026-04-22 19:46 | 48.43775 | 20.12903 | 15921 ft | 320 kts | 82° |
| 2026-04-22 19:47 | 48.43927 | 20.16235 | 15537 ft | 319 kts | 83° |
| 2026-04-22 19:47 | 48.44077 | 20.19570 | 15158 ft | 318 kts | 83° |
| 2026-04-22 19:47 | 48.44178 | 20.21820 | 14906 ft | 318 kts | 83° |
| 2026-04-22 19:47 | 48.44373 | 20.26206 | 14426 ft | 316 kts | 83° |
| 2026-04-22 19:48 | 48.44523 | 20.29502 | 14057 ft | 315 kts | 83° |
| 2026-04-22 19:48 | 48.44673 | 20.32791 | 13634 ft | 314 kts | 83° |
| 2026-04-22 19:48 | 48.44821 | 20.36068 | 13196 ft | 313 kts | 83° |
| 2026-04-22 19:48 | 48.44965 | 20.39335 | 12760 ft | 312 kts | 83° |
| 2026-04-22 19:49 | 48.45106 | 20.42590 | 12341 ft | 312 kts | 83° |
| 2026-04-22 19:49 | 48.45246 | 20.45846 | 11916 ft | 311 kts | 83° |
| 2026-04-22 19:49 | 48.45385 | 20.49095 | 11501 ft | 310 kts | 83° |
| 2026-04-22 19:49 | 48.45523 | 20.52337 | 11099 ft | 310 kts | 83° |
| 2026-04-22 19:50 | 48.45659 | 20.55571 | 10690 ft | 309 kts | 83° |
| 2026-04-22 19:50 | 48.45795 | 20.58796 | 10292 ft | 309 kts | 84° |
| 2026-04-22 19:50 | 48.45928 | 20.62023 | 9879 ft | 308 kts | 84° |
| 2026-04-22 19:50 | 48.46062 | 20.65236 | 9469 ft | 306 kts | 84° |
| 2026-04-22 19:51 | 48.46195 | 20.68420 | 9117 ft | 303 kts | 84° |
| 2026-04-22 19:51 | 48.46326 | 20.71576 | 8785 ft | 300 kts | 84° |
| 2026-04-22 19:51 | 48.46454 | 20.74704 | 8442 ft | 298 kts | 84° |
| 2026-04-22 19:51 | 48.46579 | 20.77805 | 8113 ft | 295 kts | 83° |
| 2026-04-22 19:52 | 48.46700 | 20.80870 | 7799 ft | 288 kts | 83° |
| 2026-04-22 19:52 | 48.46813 | 20.83808 | 7499 ft | 274 kts | 83° |
| 2026-04-22 19:52 | 48.46920 | 20.86610 | 7218 ft | 261 kts | 83° |
| 2026-04-22 19:52 | 48.47025 | 20.89281 | 6938 ft | 251 kts | 83° |
| 2026-04-22 19:53 | 48.47126 | 20.91856 | 6641 ft | 242 kts | 83° |
| 2026-04-22 19:53 | 48.47223 | 20.94339 | 6335 ft | 233 kts | 82° |
| 2026-04-22 19:53 | 48.47286 | 20.95938 | 6120 ft | 228 kts | 82° |
| 2026-04-22 19:53 | 48.47411 | 20.99129 | 5703 ft | 228 kts | 82° |
| 2026-04-22 19:54 | 48.47505 | 21.01524 | 5387 ft | 229 kts | 82° |
| 2026-04-22 19:54 | 48.47597 | 21.03926 | 5079 ft | 230 kts | 81° |
| 2026-04-22 19:54 | 48.47689 | 21.06327 | 4765 ft | 226 kts | 81° |
| 2026-04-22 19:54 | 48.47774 | 21.08631 | 4453 ft | 220 kts | 81° |
| 2026-04-22 19:55 | 48.47859 | 21.10920 | 4185 ft | 213 kts | 81° |
| 2026-04-22 19:55 | 48.47939 | 21.13084 | 3928 ft | 206 kts | 81° |
| 2026-04-22 19:55 | 48.48212 | 21.15156 | 3695 ft | 198 kts | 62° |
| 2026-04-22 19:55 | 48.48897 | 21.16874 | 3549 ft | 186 kts | 43° |
| 2026-04-22 19:56 | 48.49866 | 21.18095 | 3536 ft | 180 kts | 26° |
| 2026-04-22 19:56 | 48.50995 | 21.18784 | 3513 ft | 169 kts | 11° |
| 2026-04-22 19:56 | 48.52113 | 21.19173 | 3361 ft | 161 kts | 11° |
| 2026-04-22 19:56 | 48.53180 | 21.19543 | 3176 ft | 155 kts | 11° |
| 2026-04-22 19:57 | 48.54228 | 21.19907 | 2969 ft | 153 kts | 11° |
| 2026-04-22 19:57 | 48.55262 | 21.20267 | 2755 ft | 151 kts | 11° |
| 2026-04-22 19:57 | 48.56266 | 21.20621 | 2530 ft | 146 kts | 11° |
| 2026-04-22 19:57 | 48.57237 | 21.20960 | 2331 ft | 140 kts | 11° |
| 2026-04-22 19:58 | 48.57860 | 21.21175 | 2240 ft | 138 kts | 11° |
| 2026-04-22 19:58 | 48.58791 | 21.21501 | 2048 ft | 137 kts | 11° |
| 2026-04-22 19:58 | 48.59715 | 21.21822 | 1863 ft | 136 kts | 11° |
| 2026-04-22 19:58 | 48.60634 | 21.22145 | 1659 ft | 136 kts | 11° |
| 2026-04-22 19:59 | 48.61561 | 21.22465 | 1447 ft | 137 kts | 12° |
| 2026-04-22 20:00 | 48.66604 | 21.24222 | 758 ft | 70 kts | 13° |
| 2026-04-22 20:00 | 48.67027 | 21.24369 | 760 ft | 47 kts | 13° |
| 2026-04-22 20:01 | 48.67206 | 21.24419 | 755 ft | 18 kts | 349° |
| 2026-04-22 20:01 | 48.67248 | 21.24285 | 756 ft | 15 kts | 283° |
| 2026-04-22 20:01 | 48.67259 | 21.24217 | 757 ft | 0 kts | 283° |
| 2026-04-22 20:01 | 48.67259 | 21.24215 | 757 ft | 1 kts | 283° |
| 2026-04-22 20:02 | 48.67263 | 21.24191 | 753 ft | 4 kts | 283° |
| 2026-04-22 20:02 | 48.67272 | 21.24136 | 755 ft | 7 kts | 283° |
| 2026-04-22 20:02 | 48.67286 | 21.24045 | 757 ft | 10 kts | 283° |
| 2026-04-22 20:02 | 48.67307 | 21.23928 | 753 ft | 11 kts | 298° |
| 2026-04-22 20:03 | 48.67343 | 21.23879 | 756 ft | 5 kts | 296° |
| 2026-04-22 20:03 | 48.67332 | 21.23848 | 754 ft | 2 kts | 225° |
| 2026-04-22 20:03 | 48.67330 | 21.23845 | 754 ft | 0 kts | 225° |